createdAt,value
2022-09-28T00:00:55.531Z,-23406.75
2022-09-28T00:02:58.372Z,-23409.28
2022-09-28T00:05:01.046Z,-23411.34
2022-09-28T00:07:03.657Z,-23411.34
2022-09-28T00:09:07.670Z,-23415.47
2022-09-28T00:11:15.207Z,-23412.94
2022-09-28T00:13:17.842Z,-23417.22
2022-09-28T00:15:20.408Z,-23414.38
2022-09-28T00:17:23.846Z,-23413.25
2022-09-28T00:19:26.588Z,-23415.97
2022-09-28T00:21:31.481Z,-23413.56
2022-09-28T00:23:34.309Z,-23414.22
2022-09-28T00:25:38.257Z,-23413.09
2022-09-28T00:27:41.192Z,-23417.69
2022-09-28T00:29:43.831Z,-23415.78
2022-09-28T00:31:46.473Z,-23415.97
2022-09-28T00:33:51.526Z,-23415.16
2022-09-28T00:36:00.209Z,-23413.25
2022-09-28T00:38:03.822Z,-23415.31
2022-09-28T00:40:07.655Z,-23412.94
2022-09-28T00:42:15.421Z,-23416.91
2022-09-28T00:44:40.868Z,-23418.34
2022-09-28T00:46:43.541Z,-23418.97
2022-09-28T00:48:53.976Z,-23414.53
2022-09-28T00:50:57.563Z,-23417.22
2022-09-28T00:53:06.255Z,-23413.25
2022-09-28T00:55:12.290Z,-23414.22
2022-09-28T00:57:17.004Z,-23414.03
2022-09-28T00:59:19.734Z,-23415.47
2022-09-28T01:01:22.611Z,-23415.97
2022-09-28T01:03:25.868Z,-23415.97
2022-09-28T01:05:28.719Z,-23416.59
2022-09-28T01:07:33.241Z,-23417.22
2022-09-28T01:09:39.770Z,-23419.44
2022-09-28T01:11:43.920Z,-23419.59
2022-09-28T01:13:51.214Z,-23419.75
2022-09-28T01:16:02.192Z,-23422.16
2022-09-28T01:18:14.201Z,-23422.00
2022-09-28T01:20:40.182Z,-23421.81
2022-09-28T01:23:13.319Z,-23421.81
2022-09-28T01:25:25.888Z,-23423.41
2022-09-28T01:27:34.125Z,-23423.88
2022-09-28T01:29:45.263Z,-23425.00
2022-09-28T01:31:53.756Z,-23426.59
2022-09-28T01:34:01.978Z,-23427.22
2022-09-28T01:36:11.258Z,-23426.59
2022-09-28T01:38:18.620Z,-23428.50
2022-09-28T01:40:23.488Z,-23429.44
2022-09-28T01:42:32.929Z,-23431.19
2022-09-28T01:44:40.049Z,-23430.41
2022-09-28T01:46:45.240Z,-23431.69
2022-09-28T01:48:52.478Z,-23432.00
2022-09-28T01:50:57.933Z,-23433.41
2022-09-28T01:53:05.042Z,-23434.84
2022-09-28T01:55:12.864Z,-23435.47
2022-09-28T01:57:19.305Z,-23434.84
2022-09-28T01:59:26.346Z,-23435.16
2022-09-28T02:01:34.751Z,-23434.38
2022-09-28T02:03:42.242Z,-23435.81
2022-09-28T02:05:50.261Z,-23436.75
2022-09-28T02:08:00.567Z,-23437.72
2022-09-28T02:10:09.624Z,-23437.72
2022-09-28T02:12:17.164Z,-23437.41
2022-09-28T02:14:20.832Z,-23437.53
2022-09-28T02:16:33.326Z,-23438.03
2022-09-28T02:18:36.281Z,-23438.66
2022-09-28T02:20:42.405Z,-23440.88
2022-09-28T02:22:48.877Z,-23441.34
2022-09-28T02:24:56.459Z,-23441.53
2022-09-28T02:27:04.053Z,-23441.19
2022-09-28T02:29:06.742Z,-23441.34
2022-09-28T02:31:09.396Z,-23440.25
2022-09-28T02:33:18.487Z,-23440.72
2022-09-28T02:35:21.811Z,-23441.19
2022-09-28T02:37:24.573Z,-23442.16
2022-09-28T02:39:27.608Z,-23442.00
2022-09-28T02:41:46.600Z,-23442.94
2022-09-28T02:43:58.176Z,-23443.75
2022-09-28T02:46:09.987Z,-23444.06
2022-09-28T02:48:42.700Z,-23445.16
2022-09-28T02:50:57.595Z,-23445.47
2022-09-28T02:53:25.531Z,-23445.31
2022-09-28T02:55:43.497Z,-23445.16
2022-09-28T02:58:09.680Z,-23446.28
2022-09-28T03:00:18.606Z,-23446.44
2022-09-28T03:02:28.887Z,-23446.91
2022-09-28T03:04:40.795Z,-23446.75
2022-09-28T03:06:49.571Z,-23446.44
2022-09-28T03:09:00.049Z,-23447.22
2022-09-28T03:11:05.441Z,-23446.59
2022-09-28T03:13:08.943Z,-23448.03
2022-09-28T03:15:14.738Z,-23446.91
2022-09-28T03:17:17.367Z,-23445.16
2022-09-28T03:19:23.800Z,-23447.53
2022-09-28T03:21:27.811Z,-23448.19
2022-09-28T03:23:30.430Z,-23447.53
2022-09-28T03:25:33.024Z,-23446.59
2022-09-28T03:27:35.617Z,-23445.81
2022-09-28T03:29:38.535Z,-23445.97
2022-09-28T03:31:41.224Z,-23445.31
2022-09-28T03:33:43.853Z,-23445.47
2022-09-28T03:35:47.906Z,-23445.00
2022-09-28T03:37:55.744Z,-23444.84
2022-09-28T03:39:58.512Z,-23446.75
2022-09-28T03:42:01.544Z,-23445.16
2022-09-28T03:44:04.474Z,-23446.28
2022-09-28T03:46:07.310Z,-23446.13
2022-09-28T03:48:09.989Z,-23446.59
2022-09-28T03:50:12.572Z,-23443.41
2022-09-28T03:52:16.232Z,-23443.75
2022-09-28T03:54:20.227Z,-23443.75
2022-09-28T03:56:22.863Z,-23445.31
2022-09-28T03:58:25.477Z,-23445.97
2022-09-28T04:00:28.116Z,-23445.16
2022-09-28T04:02:30.906Z,-23445.00
2022-09-28T04:04:33.649Z,-23443.59
2022-09-28T04:06:36.241Z,-23443.91
2022-09-28T04:08:38.823Z,-23443.41
2022-09-28T04:10:42.799Z,-23443.25
2022-09-28T04:12:45.912Z,-23441.84
2022-09-28T04:14:48.552Z,-23443.75
2022-09-28T04:16:54.214Z,-23443.75
2022-09-28T04:18:58.473Z,-23443.91
2022-09-28T04:21:03.566Z,-23445.97
2022-09-28T04:23:06.181Z,-23441.19
2022-09-28T04:25:09.586Z,-23441.19
2022-09-28T04:27:31.011Z,-23441.03
2022-09-28T04:29:33.633Z,-23439.94
2022-09-28T04:31:41.764Z,-23438.81
2022-09-28T04:33:44.546Z,-23440.88
2022-09-28T04:35:47.206Z,-23440.56
2022-09-28T04:37:49.828Z,-23438.03
2022-09-28T04:39:52.525Z,-23440.09
2022-09-28T04:41:55.112Z,-23437.72
2022-09-28T04:43:59.099Z,-23434.38
2022-09-28T04:46:02.942Z,-23436.59
2022-09-28T04:48:07.479Z,-23437.53
2022-09-28T04:50:10.486Z,-23435.81
2022-09-28T04:52:18.015Z,-23432.94
2022-09-28T04:54:21.016Z,-23434.06
2022-09-28T04:56:23.692Z,-23435.16
2022-09-28T04:58:27.209Z,-23431.34
2022-09-28T05:00:35.203Z,-23428.19
2022-09-28T05:02:37.817Z,-23427.22
2022-09-28T05:04:40.907Z,-23425.31
2022-09-28T05:06:43.515Z,-23424.69
2022-09-28T05:08:47.109Z,-23423.41
2022-09-28T05:10:49.873Z,-23425.31
2022-09-28T05:12:52.541Z,-23429.13
2022-09-28T05:14:56.444Z,-23426.28
2022-09-28T05:17:00.436Z,-23424.38
2022-09-28T05:19:03.069Z,-23422.78
2022-09-28T05:21:10.628Z,-23428.66
2022-09-28T05:23:15.366Z,-23425.00
2022-09-28T05:25:17.980Z,-23428.03
2022-09-28T05:27:20.589Z,-23424.06
2022-09-28T05:29:23.212Z,-23425.97
2022-09-28T05:31:27.167Z,-23424.69
2022-09-28T05:33:32.013Z,-23422.31
2022-09-28T05:35:34.703Z,-23425.00
2022-09-28T05:37:37.483Z,-23426.44
2022-09-28T05:39:40.368Z,-23423.72
2022-09-28T05:41:42.942Z,-23423.72
2022-09-28T05:43:46.067Z,-23424.38
2022-09-28T05:45:53.019Z,-23421.50
2022-09-28T05:47:58.247Z,-23423.88
2022-09-28T05:50:02.260Z,-23426.59
2022-09-28T05:52:04.832Z,-23425.63
2022-09-28T05:54:07.444Z,-23427.84
2022-09-28T05:56:10.035Z,-23425.31
2022-09-28T05:58:12.678Z,-23424.69
2022-09-28T06:00:15.626Z,-23426.75
2022-09-28T06:02:18.444Z,-23425.47
2022-09-28T06:04:21.118Z,-23429.28
2022-09-28T06:06:25.136Z,-23426.28
2022-09-28T06:08:27.708Z,-23427.06
2022-09-28T06:10:30.362Z,-23425.00
2022-09-28T06:12:35.064Z,-23424.06
2022-09-28T06:14:38.817Z,-23425.97
2022-09-28T06:16:56.850Z,-23429.63
2022-09-28T06:18:59.474Z,-23426.75
2022-09-28T06:21:02.543Z,-23429.28
2022-09-28T06:23:06.609Z,-23428.50
2022-09-28T06:25:10.461Z,-23431.19
2022-09-28T06:27:13.058Z,-23429.28
2022-09-28T06:29:19.851Z,-23429.78
2022-09-28T06:31:23.779Z,-23429.44
2022-09-28T06:33:26.720Z,-23430.09
2022-09-28T06:35:31.207Z,-23430.72
2022-09-28T06:37:33.888Z,-23436.13
2022-09-28T06:39:37.910Z,-23432.31
2022-09-28T06:41:40.908Z,-23430.41
2022-09-28T06:43:43.558Z,-23439.94
2022-09-28T06:45:52.446Z,-23437.72
2022-09-28T06:47:57.493Z,-23434.53
2022-09-28T06:50:00.107Z,-23441.34
2022-09-28T06:52:02.876Z,-23439.28
2022-09-28T06:54:06.113Z,-23441.19
2022-09-28T06:56:12.209Z,-23444.53
2022-09-28T06:58:17.254Z,-23442.16
2022-09-28T07:00:20.131Z,-23444.06
2022-09-28T07:02:23.523Z,-23447.53
2022-09-28T07:04:26.277Z,-23447.88
2022-09-28T07:06:31.442Z,-23444.69
2022-09-28T07:08:34.006Z,-23440.72
2022-09-28T07:10:36.718Z,-23441.69
2022-09-28T07:12:40.781Z,-23441.69
2022-09-28T07:14:47.893Z,-23442.16
2022-09-28T07:17:11.833Z,-23438.19
2022-09-28T07:19:14.486Z,-23442.16
2022-09-28T07:21:28.189Z,-23436.59
2022-09-28T07:23:34.619Z,-23437.53
2022-09-28T07:25:45.435Z,-23445.66
2022-09-28T07:27:49.504Z,-23444.69
2022-09-28T07:29:53.113Z,-23438.50
2022-09-28T07:31:55.735Z,-23443.59
2022-09-28T07:33:58.689Z,-23448.19
2022-09-28T07:36:06.364Z,-23445.47
2022-09-28T07:38:09.667Z,-23451.03
2022-09-28T07:40:29.752Z,-23452.47
2022-09-28T07:42:32.461Z,-23448.97
2022-09-28T07:44:38.963Z,-23451.34
2022-09-28T07:46:44.197Z,-23445.81
2022-09-28T07:48:46.890Z,-23452.00
2022-09-28T07:50:51.653Z,-23450.88
2022-09-28T07:52:54.341Z,-23450.72
2022-09-28T07:54:57.029Z,-23444.84
2022-09-28T07:56:59.704Z,-23450.88
2022-09-28T07:59:02.449Z,-23453.56
2022-09-28T08:01:10.291Z,-23454.84
2022-09-28T08:03:12.980Z,-23463.25
2022-09-28T08:05:15.660Z,-23465.00
2022-09-28T08:07:23.470Z,-23474.34
2022-09-28T08:09:26.596Z,-23476.25
2022-09-28T08:11:29.205Z,-23468.31
2022-09-28T08:13:31.882Z,-23468.16
2022-09-28T08:15:36.827Z,-23465.78
2022-09-28T08:17:40.815Z,-23463.56
2022-09-28T08:20:00.034Z,-23468.00
2022-09-28T08:22:02.666Z,-23458.97
2022-09-28T08:24:05.735Z,-23462.13
2022-09-28T08:26:13.277Z,-23465.31
2022-09-28T08:28:18.664Z,-23465.47
2022-09-28T08:30:21.367Z,-23461.81
2022-09-28T08:32:24.616Z,-23468.31
2022-09-28T08:34:28.894Z,-23481.47
2022-09-28T08:36:31.524Z,-23467.84
2022-09-28T08:38:34.176Z,-23473.56
2022-09-28T08:40:49.388Z,-23474.81
2022-09-28T08:42:56.221Z,-23482.91
2022-09-28T08:45:00.052Z,-23478.94
2022-09-28T08:47:07.229Z,-23486.25
2022-09-28T08:49:24.854Z,-23490.38
2022-09-28T08:51:33.890Z,-23488.63
2022-09-28T08:53:44.257Z,-23490.38
2022-09-28T08:55:47.507Z,-23483.38
2022-09-28T08:57:57.403Z,-23491.47
2022-09-28T09:00:04.731Z,-23496.88
2022-09-28T09:02:16.007Z,-23508.44
2022-09-28T09:04:19.101Z,-23506.53
2022-09-28T09:06:29.990Z,-23509.53
2022-09-28T09:08:46.047Z,-23507.16
2022-09-28T09:10:51.960Z,-23492.75
2022-09-28T09:13:04.427Z,-23497.03
2022-09-28T09:15:22.720Z,-23498.75
2022-09-28T09:17:39.176Z,-23491.78
2022-09-28T09:19:51.496Z,-23499.72
2022-09-28T09:22:01.578Z,-23504.94
2022-09-28T09:24:21.469Z,-23499.56
2022-09-28T09:26:37.105Z,-23508.09
2022-09-28T09:28:59.366Z,-23506.53
2022-09-28T09:31:12.302Z,-23500.34
2022-09-28T09:33:40.942Z,-23507.94
2022-09-28T09:36:11.658Z,-23490.03
2022-09-28T09:38:33.656Z,-23483.84
2022-09-28T09:40:53.068Z,-23487.50
2022-09-28T09:43:19.608Z,-23484.34
2022-09-28T09:45:43.039Z,-23493.84
2022-09-28T09:47:51.537Z,-23488.78
2022-09-28T09:50:05.435Z,-23500.34
2022-09-28T09:52:19.675Z,-23495.44
2022-09-28T09:54:28.685Z,-23499.56
2022-09-28T09:56:38.511Z,-23510.00
2022-09-28T09:58:47.945Z,-23500.34
2022-09-28T10:00:53.601Z,-23506.22
2022-09-28T10:03:00.123Z,-23512.38
2022-09-28T10:05:07.822Z,-23513.50
2022-09-28T10:07:19.767Z,-23522.38
2022-09-28T10:09:27.168Z,-23530.59
2022-09-28T10:11:36.055Z,-23516.03
2022-09-28T10:13:40.316Z,-23528.38
2022-09-28T10:15:43.561Z,-23531.38
2022-09-28T10:17:46.407Z,-23536.94
2022-09-28T10:19:49.063Z,-23512.84
2022-09-28T10:21:51.981Z,-23522.69
2022-09-28T10:23:58.306Z,-23524.25
2022-09-28T10:26:05.038Z,-23525.84
2022-09-28T10:28:08.610Z,-23531.38
2022-09-28T10:30:18.819Z,-23539.16
2022-09-28T10:32:24.327Z,-23520.31
2022-09-28T10:34:28.729Z,-23541.34
2022-09-28T10:36:38.183Z,-23528.38
2022-09-28T10:38:48.544Z,-23529.47
2022-09-28T10:40:54.254Z,-23534.72
2022-09-28T10:43:09.173Z,-23537.09
2022-09-28T10:45:22.222Z,-23533.44
2022-09-28T10:47:27.355Z,-23535.03
2022-09-28T10:49:33.338Z,-23517.47
2022-09-28T10:51:43.450Z,-23527.75
2022-09-28T10:53:59.918Z,-23527.75
2022-09-28T10:56:05.551Z,-23531.53
2022-09-28T10:58:27.842Z,-23535.34
2022-09-28T11:00:36.016Z,-23536.94
2022-09-28T11:06:51.449Z,-23549.59
2022-09-28T11:08:55.767Z,-23526.47
2022-09-28T11:11:04.603Z,-23542.94
2022-09-28T11:13:10.474Z,-23541.03
2022-09-28T11:15:19.926Z,-23539.78
2022-09-28T11:17:29.964Z,-23534.22
2022-09-28T11:19:32.671Z,-23533.59
2022-09-28T11:21:43.121Z,-23539.31
2022-09-28T11:23:58.289Z,-23541.53
2022-09-28T11:26:05.689Z,-23528.84
2022-09-28T11:28:20.713Z,-23530.44
2022-09-28T11:30:25.683Z,-23538.34
2022-09-28T11:32:40.605Z,-23538.50
2022-09-28T11:34:59.311Z,-23538.03
2022-09-28T11:37:17.524Z,-23536.94
2022-09-28T11:39:30.439Z,-23539.47
2022-09-28T11:41:52.486Z,-23542.16
2022-09-28T11:44:14.421Z,-23536.59
2022-09-28T11:46:26.482Z,-23548.47
2022-09-28T11:48:40.410Z,-23542.31
2022-09-28T11:50:48.554Z,-23554.97
2022-09-28T11:52:58.533Z,-23554.66
2022-09-28T11:55:07.429Z,-23551.66
2022-09-28T11:57:17.244Z,-23550.22
2022-09-28T11:59:33.332Z,-23552.75
2022-09-28T12:01:41.318Z,-23545.16
2022-09-28T12:03:51.564Z,-23553.53
2022-09-28T12:06:00.567Z,-23554.97
2022-09-28T12:08:08.839Z,-23556.38
2022-09-28T12:10:18.935Z,-23554.19
2022-09-28T12:12:26.670Z,-23555.59
2022-09-28T12:14:34.229Z,-23533.75
2022-09-28T12:19:16.502Z,-23544.53
2022-09-28T12:21:34.601Z,-23545.78
2022-09-28T12:23:41.299Z,-23565.09
2022-09-28T12:25:50.471Z,-23559.41
2022-09-28T12:27:57.528Z,-23570.63
2022-09-28T12:30:06.180Z,-23565.41
2022-09-28T12:32:15.330Z,-23565.88
2022-09-28T12:34:19.348Z,-23557.81
2022-09-28T12:36:32.463Z,-23562.25
2022-09-28T12:38:54.060Z,-23562.25
2022-09-28T12:41:05.731Z,-23564.47
2022-09-28T12:43:48.092Z,-23559.41
2022-09-28T12:46:14.161Z,-23548.63
2022-09-28T12:48:36.986Z,-23553.38
2022-09-28T12:50:56.703Z,-23547.84
2022-09-28T12:53:27.234Z,-23563.03
2022-09-28T12:55:51.319Z,-23562.88
2022-09-28T12:58:00.563Z,-23568.41
2022-09-28T13:00:06.785Z,-23560.97
2022-09-28T13:02:31.511Z,-23555.91
2022-09-28T13:05:00.138Z,-23561.59
2022-09-28T13:07:07.535Z,-23556.38
2022-09-28T13:09:19.909Z,-23554.66
2022-09-28T13:11:31.855Z,-23556.72
2022-09-28T13:13:47.764Z,-23557.19
2022-09-28T13:15:58.744Z,-23568.88
2022-09-28T13:18:18.202Z,-23565.72
2022-09-28T13:20:32.160Z,-23557.81
2022-09-28T13:22:50.461Z,-23549.91
2022-09-28T13:24:56.777Z,-23552.13
2022-09-28T13:27:06.906Z,-23563.03
2022-09-28T13:29:14.247Z,-23568.56
2022-09-28T13:31:21.907Z,-23567.94
2022-09-28T13:33:33.687Z,-23549.59
2022-09-28T13:35:36.301Z,-23554.34
2022-09-28T13:37:40.622Z,-23551.81
2022-09-28T13:39:52.667Z,-23556.06
2022-09-28T13:41:55.960Z,-23560.34
2022-09-28T13:44:39.622Z,-23562.56
2022-09-28T13:46:52.493Z,-23556.38
2022-09-28T13:49:09.700Z,-23556.53
2022-09-28T13:51:40.932Z,-23561.59
2022-09-28T13:54:07.792Z,-23554.03
2022-09-28T13:56:25.499Z,-23556.53
2022-09-28T13:58:33.471Z,-23557.81
2022-09-28T14:00:45.735Z,-23550.22
2022-09-28T14:02:52.894Z,-23558.75
2022-09-28T14:04:58.831Z,-23556.06
2022-09-28T14:07:11.774Z,-23562.88
2022-09-28T14:09:28.575Z,-23561.28
2022-09-28T14:11:55.911Z,-23569.34
2022-09-28T14:14:03.186Z,-23564.47
2022-09-28T14:16:22.224Z,-23568.88
2022-09-28T14:18:31.209Z,-23562.41
2022-09-28T14:20:36.378Z,-23564.63
2022-09-28T14:22:55.136Z,-23556.22
2022-09-28T14:25:08.797Z,-23560.03
2022-09-28T14:27:28.845Z,-23556.88
2022-09-28T14:29:33.475Z,-23554.03
2022-09-28T14:31:43.288Z,-23557.81
2022-09-28T14:33:56.873Z,-23558.44
2022-09-28T14:36:02.272Z,-23545.63
2022-09-28T14:38:36.559Z,-23549.44
2022-09-28T14:41:10.890Z,-23553.53
2022-09-28T14:43:27.085Z,-23551.66
2022-09-28T14:45:38.335Z,-23553.38
2022-09-28T14:47:43.812Z,-23551.16
2022-09-28T14:50:01.707Z,-23549.59
2022-09-28T14:52:04.802Z,-23548.47
2022-09-28T14:54:17.058Z,-23553.06
2022-09-28T14:56:22.098Z,-23556.38
2022-09-28T14:58:27.513Z,-23553.53
2022-09-28T15:00:31.665Z,-23554.97
2022-09-28T15:02:38.499Z,-23551.81
2022-09-28T15:04:43.521Z,-23548.00
2022-09-28T15:06:48.216Z,-23549.75
2022-09-28T15:08:51.256Z,-23549.59
2022-09-28T15:10:53.906Z,-23551.81
2022-09-28T15:12:58.444Z,-23548.78
2022-09-28T15:15:03.566Z,-23547.22
2022-09-28T15:17:10.891Z,-23545.16
2022-09-28T15:19:29.229Z,-23541.03
2022-09-28T15:21:36.756Z,-23545.16
2022-09-28T15:23:41.309Z,-23542.31
2022-09-28T15:25:52.671Z,-23544.22
2022-09-28T15:27:56.935Z,-23542.00
2022-09-28T15:30:02.613Z,-23540.09
2022-09-28T15:32:05.333Z,-23543.25
2022-09-28T15:34:44.181Z,-23536.94
2022-09-28T15:36:47.607Z,-23538.19
2022-09-28T15:38:57.360Z,-23540.72
2022-09-28T15:41:02.755Z,-23545.16
2022-09-28T15:43:23.535Z,-23537.25
2022-09-28T15:45:32.748Z,-23535.19
2022-09-28T15:47:38.701Z,-23533.91
2022-09-28T15:49:45.990Z,-23530.28
2022-09-28T15:51:53.683Z,-23532.19
2022-09-28T15:54:00.164Z,-23527.75
2022-09-28T15:56:09.984Z,-23529.00
2022-09-28T15:58:18.679Z,-23530.44
2022-09-28T16:00:29.167Z,-23527.75
2022-09-28T16:02:31.959Z,-23526.31
2022-09-28T16:04:38.194Z,-23523.31
2022-09-28T16:06:41.937Z,-23524.91
2022-09-28T16:08:45.841Z,-23524.91
2022-09-28T16:10:58.811Z,-23526.78
2022-09-28T16:13:15.438Z,-23524.09
2022-09-28T16:15:22.686Z,-23518.25
2022-09-28T16:17:32.289Z,-23516.34
2022-09-28T16:19:39.251Z,-23516.03
2022-09-28T16:21:46.397Z,-23516.34
2022-09-28T16:23:52.979Z,-23517.28
2022-09-28T16:25:59.723Z,-23520.78
2022-09-28T16:28:02.293Z,-23519.81
2022-09-28T16:30:17.078Z,-23516.34
2022-09-28T16:32:41.545Z,-23515.88
2022-09-28T16:34:44.158Z,-23513.66
2022-09-28T16:36:49.556Z,-23510.66
2022-09-28T16:38:54.281Z,-23510.66
2022-09-28T16:40:59.334Z,-23508.09
2022-09-28T16:43:05.301Z,-23506.84
2022-09-28T16:45:15.296Z,-23504.78
2022-09-28T16:47:17.979Z,-23502.41
2022-09-28T16:49:23.827Z,-23503.03
2022-09-28T16:51:26.734Z,-23502.41
2022-09-28T16:53:46.820Z,-23500.19
2022-09-28T16:55:50.671Z,-23497.34
2022-09-28T16:57:53.303Z,-23498.13
2022-09-28T16:59:55.891Z,-23494.66
2022-09-28T17:01:59.181Z,-23494.66
2022-09-28T17:04:02.382Z,-23492.59
2022-09-28T17:06:07.362Z,-23492.59
2022-09-28T17:08:14.659Z,-23489.25
2022-09-28T17:10:19.209Z,-23486.41
2022-09-28T17:12:24.384Z,-23485.91
2022-09-28T17:14:27.070Z,-23483.22
2022-09-28T17:16:59.887Z,-23481.31
2022-09-28T17:18:55.611Z,-23477.03
2022-09-28T17:20:59.392Z,-23476.56
2022-09-28T17:23:03.398Z,-23474.19
2022-09-28T17:25:09.052Z,-23472.91
2022-09-28T17:27:20.907Z,-23472.91
2022-09-28T17:29:23.868Z,-23468.81
2022-09-28T17:31:27.383Z,-23469.44
2022-09-28T17:33:30.267Z,-23468.00
2022-09-28T17:35:36.186Z,-23466.09
2022-09-28T17:37:42.044Z,-23465.78
2022-09-28T17:39:46.017Z,-23460.56
2022-09-28T17:41:48.668Z,-23463.41
2022-09-28T17:43:51.271Z,-23463.25
2022-09-28T17:45:54.058Z,-23462.78
2022-09-28T17:47:57.366Z,-23463.41
2022-09-28T17:49:59.969Z,-23457.38
2022-09-28T17:52:04.014Z,-23455.63
2022-09-28T17:54:08.520Z,-23455.78
2022-09-28T17:56:12.570Z,-23455.47
2022-09-28T17:58:18.080Z,-23453.25
2022-09-28T18:00:20.788Z,-23452.63
2022-09-28T18:02:25.072Z,-23452.78
2022-09-28T18:04:50.833Z,-23453.09
2022-09-28T18:06:50.941Z,-23452.00
2022-09-28T18:08:53.577Z,-23450.41
2022-09-28T18:10:56.705Z,-23449.44
2022-09-28T18:13:00.703Z,-23448.66
2022-09-28T18:15:05.382Z,-23449.59
2022-09-28T18:17:08.172Z,-23448.97
2022-09-28T18:19:10.889Z,-23446.13
2022-09-28T18:21:13.956Z,-23450.09
2022-09-28T18:23:16.850Z,-23448.66
2022-09-28T18:25:19.648Z,-23447.53
2022-09-28T18:27:22.515Z,-23446.75
2022-09-28T18:29:29.904Z,-23445.97
2022-09-28T18:31:35.006Z,-23444.38
2022-09-28T18:33:37.730Z,-23447.72
2022-09-28T18:35:40.489Z,-23444.69
2022-09-28T18:37:43.430Z,-23442.00
2022-09-28T18:39:46.250Z,-23445.00
2022-09-28T18:41:49.053Z,-23441.19
2022-09-28T18:43:52.150Z,-23442.78
2022-09-28T18:45:56.320Z,-23439.47
2022-09-28T18:47:59.574Z,-23438.97
2022-09-28T18:50:02.236Z,-23439.94
2022-09-28T18:52:04.953Z,-23440.88
2022-09-28T18:54:07.621Z,-23441.84
2022-09-28T18:56:12.944Z,-23436.44
2022-09-28T18:58:15.620Z,-23434.53
2022-09-28T19:00:18.291Z,-23432.63
2022-09-28T19:02:22.369Z,-23436.13
2022-09-28T19:04:25.330Z,-23438.97
2022-09-28T19:06:28.501Z,-23437.53
2022-09-28T19:08:31.329Z,-23436.44
2022-09-28T19:10:33.988Z,-23437.41
2022-09-28T19:12:36.625Z,-23433.91
2022-09-28T19:14:39.264Z,-23432.16
2022-09-28T19:16:41.966Z,-23431.03
2022-09-28T19:18:46.327Z,-23431.69
2022-09-28T19:20:48.984Z,-23429.78
2022-09-28T19:22:51.656Z,-23425.97
2022-09-28T19:24:54.305Z,-23425.00
2022-09-28T19:26:57.220Z,-23423.25
2022-09-28T19:29:00.703Z,-23420.25
2022-09-28T19:31:05.898Z,-23421.50
2022-09-28T19:33:08.545Z,-23421.50
2022-09-28T19:35:12.588Z,-23423.41
2022-09-28T19:37:15.355Z,-23425.97
2022-09-28T19:39:18.193Z,-23423.09
2022-09-28T19:41:39.581Z,-23424.69
2022-09-28T19:43:44.861Z,-23422.94
2022-09-28T19:45:51.966Z,-23422.00
2022-09-28T19:47:59.247Z,-23422.78
2022-09-28T19:50:03.332Z,-23420.88
2022-09-28T19:52:15.010Z,-23420.88
2022-09-28T19:54:18.997Z,-23424.06
2022-09-28T19:56:22.320Z,-23421.19
2022-09-28T19:58:26.762Z,-23422.16
2022-09-28T20:00:29.409Z,-23418.81
2022-09-28T20:02:32.194Z,-23422.00
2022-09-28T20:04:35.466Z,-23421.19
2022-09-28T20:06:39.351Z,-23421.34
2022-09-28T20:08:44.787Z,-23422.31
2022-09-28T20:10:52.259Z,-23421.81
2022-09-28T20:12:54.847Z,-23420.88
2022-09-28T20:14:57.790Z,-23420.25
2022-09-28T20:17:00.419Z,-23415.47
2022-09-28T20:19:04.870Z,-23415.78
2022-09-28T20:21:09.461Z,-23419.94
2022-09-28T20:23:12.957Z,-23416.28
2022-09-28T20:25:17.008Z,-23418.19
2022-09-28T20:27:22.077Z,-23414.22
2022-09-28T20:29:28.121Z,-23412.13
2022-09-28T20:31:31.028Z,-23415.47
2022-09-28T20:33:35.257Z,-23415.47
2022-09-28T20:35:40.375Z,-23415.47
2022-09-28T20:37:43.180Z,-23414.22
2022-09-28T20:39:46.090Z,-23413.56
2022-09-28T20:41:50.120Z,-23414.22
2022-09-28T20:43:53.918Z,-23413.09
2022-09-28T20:45:56.940Z,-23411.03
2022-09-28T20:48:04.377Z,-23411.03
2022-09-28T20:50:08.373Z,-23413.09
2022-09-28T20:52:11.109Z,-23410.25
2022-09-28T20:54:13.762Z,-23409.75
2022-09-28T20:56:19.513Z,-23408.81
2022-09-28T20:58:23.500Z,-23408.16
2022-09-28T21:00:26.215Z,-23406.09
2022-09-28T21:02:28.849Z,-23406.09
2022-09-28T21:04:32.250Z,-23410.56
2022-09-28T21:06:36.842Z,-23407.84
2022-09-28T21:08:39.438Z,-23405.00
2022-09-28T21:10:44.903Z,-23403.41
2022-09-28T21:12:53.089Z,-23400.22
2022-09-28T21:14:57.051Z,-23402.94
2022-09-28T21:16:59.719Z,-23404.03
2022-09-28T21:19:02.710Z,-23405.16
2022-09-28T21:21:07.141Z,-23404.34
2022-09-28T21:23:09.776Z,-23406.91
2022-09-28T21:25:12.371Z,-23406.28
2022-09-28T21:27:14.998Z,-23407.38
2022-09-28T21:29:17.789Z,-23407.84
2022-09-28T21:31:26.226Z,-23406.91
2022-09-28T21:33:31.369Z,-23407.53
2022-09-28T21:35:35.155Z,-23404.69
2022-09-28T21:37:37.775Z,-23404.53
2022-09-28T21:39:40.480Z,-23404.34
2022-09-28T21:41:43.506Z,-23406.28
2022-09-28T21:43:46.917Z,-23407.53
2022-09-28T21:45:50.740Z,-23409.28
2022-09-28T21:47:55.420Z,-23405.94
2022-09-28T21:49:58.053Z,-23407.84
2022-09-28T21:52:02.047Z,-23407.22
2022-09-28T21:54:05.204Z,-23406.28
2022-09-28T21:56:10.802Z,-23405.00
2022-09-28T21:58:13.406Z,-23407.53
2022-09-28T22:00:17.291Z,-23407.22
2022-09-28T22:02:19.947Z,-23405.31
2022-09-28T22:04:24.029Z,-23406.41
2022-09-28T22:06:28.998Z,-23404.34
2022-09-28T22:08:31.644Z,-23403.25
2022-09-28T22:10:34.251Z,-23401.50
2022-09-28T22:12:36.938Z,-23401.19
2022-09-28T22:14:39.544Z,-23399.91
2022-09-28T22:16:42.187Z,-23398.78
2022-09-28T22:18:45.245Z,-23398.00
2022-09-28T22:20:49.291Z,-23394.19
2022-09-28T22:22:51.970Z,-23398.97
2022-09-28T22:24:54.967Z,-23398.00
2022-09-28T22:26:57.720Z,-23395.47
2022-09-28T22:29:02.163Z,-23397.06
2022-09-28T22:31:05.720Z,-23393.56
2022-09-28T22:33:08.424Z,-23391.66
2022-09-28T22:35:11.001Z,-23390.84
2022-09-28T22:37:15.120Z,-23389.75
2022-09-28T22:39:17.706Z,-23388.78
2022-09-28T22:41:21.405Z,-23387.53
2022-09-28T22:43:25.452Z,-23386.72
2022-09-28T22:45:28.065Z,-23388.00
2022-09-28T22:47:30.691Z,-23386.72
2022-09-28T22:49:33.312Z,-23387.19
2022-09-28T22:51:35.927Z,-23386.88
2022-09-28T22:53:40.042Z,-23387.84
2022-09-28T22:55:43.295Z,-23389.09
2022-09-28T22:57:45.881Z,-23391.66
2022-09-28T22:59:48.445Z,-23390.69
2022-09-28T23:01:51.159Z,-23389.91
2022-09-28T23:03:55.212Z,-23390.06
2022-09-28T23:05:58.174Z,-23391.66
2022-09-28T23:08:00.863Z,-23391.16
2022-09-28T23:10:05.200Z,-23391.97
2022-09-28T23:12:07.866Z,-23389.75
2022-09-28T23:14:12.000Z,-23387.84
2022-09-28T23:16:15.094Z,-23385.78
2022-09-28T23:18:18.034Z,-23385.59
2022-09-28T23:20:21.227Z,-23383.53
2022-09-28T23:22:24.149Z,-23381.47
2022-09-28T23:24:26.836Z,-23381.63
2022-09-28T23:26:32.387Z,-23380.69
2022-09-28T23:28:35.025Z,-23381.47
2022-09-28T23:30:37.708Z,-23380.69
2022-09-28T23:32:40.373Z,-23381.00
2022-09-28T23:34:43.587Z,-23383.38
2022-09-28T23:36:46.342Z,-23382.75
2022-09-28T23:38:49.003Z,-23384.34
2022-09-28T23:40:51.697Z,-23385.59
2022-09-28T23:42:55.697Z,-23382.44
2022-09-28T23:44:58.297Z,-23385.78
2022-09-28T23:47:01.105Z,-23385.28
2022-09-28T23:49:03.784Z,-23386.56
2022-09-28T23:51:07.530Z,-23387.34
2022-09-28T23:53:10.637Z,-23385.13
2022-09-28T23:55:13.244Z,-23387.19
2022-09-28T23:57:15.900Z,-23387.53
2022-09-28T23:59:19.978Z,-23387.84
